• Join FlightAware (Why Join?)
  • Login
  • US Flag 
09:03AM EDT


 

Airport Tracker/Info


-or-


 

Live Flight TrackerFlight Track Log ✈ SWA2478 ✈ 05-May-2012 ✈ KSJC - KSNA

Flight Track Log - Related Links

Times and Time Zones

All times are in EDT time to prevent confusion due to time zone crossing. See the SWA2478 flight status page for this flight to view local times or setup timezone preferences in your user account.

Time Position Orientation Groundspeed Altitude Reporting Facility
EDT Latitude Longitude Course Direction KTS MPH feet Rate Location/Type
11:31AM 37.3833 -121.9667 126° Southeast 161 185 2,800  Level Northern Cal TRACON
11:36AM 37.2019 -121.6592 138° Southeast 388 447 18,400 3,120 Climbing Oakland Center
11:37AM 37.1189 -121.5647 141° Southeast 388 447 21,400 2,880 Climbing Oakland Center
11:38AM 37.0317 -121.4756 138° Southeast 394 453 24,200 2,700 Climbing Oakland Center
11:39AM 36.9425 -121.3764 138° Southeast 410 472 26,900 2,460 Climbing Oakland Center
11:40AM 36.8467 -121.2694 137° Southeast 439 505 29,200 1,980 Climbing Oakland Center
11:41AM 36.7614 -121.1706 139° Southeast 450 518 30,900 1,860 Climbing Oakland Center
11:42AM 36.6636 -121.0642 140° Southeast 457 526 33,000 2,100 Climbing Oakland Center
11:43AM 36.5656 -120.9606 138° Southeast 468 539 35,200 1,740 Climbing Oakland Center
11:44AM 36.4675 -120.8522 140° Southeast 468 539 36,500 900 Climbing Oakland Center
11:45AM 36.3672 -120.7467 138° Southeast 468 539 37,000 240 Climbing Oakland Center
11:46AM 36.2689 -120.6386 139° Southeast 468 539 37,000  Level Oakland Center
11:48AM 36.0733 -120.4250 139° Southeast 467 537 37,000 -60 Level Los Angeles Center
11:49AM 35.9789 -120.3250 140° Southeast 467 537 36,900  Descending Los Angeles Center
11:50AM 35.8819 -120.2250 139° Southeast 462 532 37,000  Climbing Los Angeles Center
11:51AM 35.7875 -120.1231 140° Southeast 457 526 37,000  Level Los Angeles Center
11:52AM 35.6944 -120.0264 144° Southeast 451 519 37,000  Level Los Angeles Center
11:53AM 35.5931 -119.9372 149° Southeast 451 519 37,000  Level Los Angeles Center
11:54AM 35.4789 -119.8528 167° South 445 512 37,000  Level Los Angeles Center
11:55AM 35.3608 -119.8194 174° South 432 497 37,000  Level Los Angeles Center
11:56AM 35.2444 -119.8039 159° South 423 487 37,000  Level Los Angeles Center
11:57AM 35.1314 -119.7506 143° Southeast 429 494 37,000  Level Los Angeles Center
11:58AM 35.0317 -119.6600 146° Southeast 429 494 37,000 -60 Level Los Angeles Center
11:59AM 34.9319 -119.5772 145° Southeast 434 499 36,900 -1,080 Descending Los Angeles Center
12:00PM 34.8319 -119.4919 146° Southeast 439 505 34,900 -2,280 Descending Los Angeles Center
12:01PM 34.7319 -119.4097 145° Southeast 444 511 32,400 -2,340 Descending Los Angeles Center
12:02PM 34.6361 -119.3275 149° Southeast 433 498 30,300 -1,980 Descending Los Angeles Center
12:03PM 34.5522 -119.2664 145° Southeast 433 498 28,500 -1,680 Descending Los Angeles Center
12:04PM 34.4500 -119.1794 145° Southeast 425 489 27,000 -1,200 Descending Los Angeles Center
12:05PM 34.3600 -119.1031 146° Southeast 413 475 26,100 -960 Descending Los Angeles Center
12:06PM 34.2681 -119.0269 146° Southeast 405 466 25,100 -1,680 Descending Los Angeles Center
12:07PM 34.1778 -118.9536 144° Southeast 400 460 22,800 -1,920 Descending Los Angeles Center
12:08PM 34.0900 -118.8778 145° Southeast 395 455 21,300 -1,740 Descending Los Angeles Center
12:09PM 34.0058 -118.8075 146° Southeast 390 449 19,400 -1,800 Descending Los Angeles Center
12:10PM 33.9239 -118.7397 157° South 377 434 17,700 -1,860 Descending Los Angeles Center
12:11PM 33.8269 -118.6892 165° South 355 409 15,700 -2,040 Descending Los Angeles Center
12:12PM 33.7356 -118.6589 163° South 348 400 13,700 -1,920 Descending Los Angeles Center
12:13PM 33.6467 -118.6264 157° South 338 389 11,900 -1,740 Descending Los Angeles Center
12:14PM 33.5619 -118.5842 115° Southeast 338 389 10,300 -1,500 Descending Los Angeles Center
12:15PM 33.5281 -118.4983 83° East 277 319 9,000 -1,500 Descending Los Angeles Center
12:16PM 33.5383 -118.4014 84° East 258 297 7,400 -1,500 Descending Los Angeles Center
12:17PM 33.5464 -118.3069 83° East 263 303 6,000 -1,200 Descending Los Angeles Center
12:18PM 33.5564 -118.2150 80° East 275 316 5,000 -540 Descending Los Angeles Center
12:19PM 33.5681 -118.1381 52° Northeast 269 310 5,000  Level Los Angeles Center
12:20PM 33.6108 -118.0717 49° Northeast 229 264 5,000  Level Los Angeles Center
12:21PM 33.6500 -118.0167 40° Northeast 220 253 5,000  Level Southern California TRACON
12:22PM 33.7000 -117.9667 29° Northeast 215 247 5,000 -180 Level Southern California TRACON
12:23PM 33.7500 -117.9333 40° Northeast 218 251 4,700 -780 Descending Southern California TRACON
12:24PM 33.8000 -117.8833 29° Northeast 209 241 3,500 -900 Descending Southern California TRACON
12:25PM 33.8500 -117.8500 90° East 186 214 3,000 -300 Descending Southern California TRACON
12:26PM 33.8500 -117.8000 157° South 173 199 3,000  Level Southern California TRACON
12:27PM 33.8167 -117.7833 203° Southwest 182 209 3,000 -480 Level Southern California TRACON
12:28PM 33.7833 -117.8000 220° Southwest 149 171 2,100 -780 Descending Southern California TRACON
12:29PM 33.7500 -117.8333 203° Southwest 129 148 1,500 -720 Descending Southern California TRACON
12:30PM 33.7167 -117.8500 203° Southwest 119 137 700 -840 Descending Southern California TRACON